Walsenburg, Colorado
Current Conditions -  °F | °C
As of 9:09 PM on Thursday 27 Nov 2014 (Local Time) from KVTP Reporting Station
Clear Clear  
Wind Chill: -1°   Ceiling: Unl
Heat Index:   Visibility: 10mi
Dew Point: -9°   Wind: 13mph
Humidity: 41%   Direction: 200°SSW
Pressure: 30.36"   Gusts: 23mph
Location:  37.62°N, 104.78°W
Report Text: KVTP 280409Z AUTO 20011G20KT 10SM CLR 03/M09 A3036 RMK AO2
Loading
Personal Weather Stations






























Interactive Weather Map New forecast layout! Learn more

10-Day Weather Forecast

Advertisements
Track Severe Weather on mobile